createdAt,value
2022-08-05T00:00:51.909Z,26.66
2022-08-05T00:01:53.605Z,26.63
2022-08-05T00:02:55.428Z,26.65
2022-08-05T00:03:57.544Z,26.66
2022-08-05T00:04:59.167Z,26.65
2022-08-05T00:06:06.539Z,26.63
2022-08-05T00:07:58.775Z,26.63
2022-08-05T00:08:44.418Z,26.60
2022-08-05T00:09:48.977Z,26.60
2022-08-05T00:10:50.602Z,26.59
2022-08-05T00:11:56.054Z,26.57
2022-08-05T00:13:01.555Z,26.55
2022-08-05T00:14:12.730Z,26.53
2022-08-05T00:15:56.020Z,26.48
2022-08-05T00:16:52.486Z,26.47
2022-08-05T00:17:55.298Z,26.44
2022-08-05T00:18:57.184Z,26.43
2022-08-05T00:20:02.714Z,26.41
2022-08-05T00:21:06.826Z,26.39
2022-08-05T00:22:11.150Z,26.36
2022-08-05T00:23:13.359Z,26.34
2022-08-05T00:24:18.953Z,26.32
2022-08-05T00:25:25.965Z,26.28
2022-08-05T00:26:51.740Z,26.28
2022-08-05T00:27:53.840Z,26.31
2022-08-05T00:28:56.856Z,26.31
2022-08-05T00:29:59.080Z,26.32
2022-08-05T00:31:05.583Z,26.25
2022-08-05T00:32:12.532Z,26.20
2022-08-05T00:34:42.406Z,26.15
2022-08-05T00:34:54.423Z,26.05
2022-08-05T00:36:16.185Z,25.98
2022-08-05T00:37:23.351Z,25.92
2022-08-05T00:38:28.890Z,25.91
2022-08-05T00:39:37.096Z,25.88
2022-08-05T00:40:51.895Z,25.87
2022-08-05T00:41:55.726Z,25.84
2022-08-05T00:42:59.024Z,25.85
2022-08-05T00:44:01.566Z,25.85
2022-08-05T00:45:05.153Z,25.82
2022-08-05T00:46:10.139Z,25.79
2022-08-05T00:47:12.152Z,25.77
2022-08-05T00:48:16.122Z,25.74
2022-08-05T00:49:17.625Z,25.69
2022-08-05T00:50:20.938Z,25.68
2022-08-05T00:51:50.235Z,25.63
2022-08-05T00:52:45.515Z,25.66
2022-08-05T00:54:00.765Z,25.61
2022-08-05T00:55:04.942Z,25.57
2022-08-05T00:56:07.982Z,25.59
2022-08-05T00:57:09.829Z,25.71
2022-08-05T00:58:12.208Z,25.71
2022-08-05T00:59:14.804Z,25.77
2022-08-05T01:00:16.993Z,25.77
2022-08-05T01:01:24.958Z,25.77
2022-08-05T01:02:40.221Z,25.89
2022-08-05T01:03:42.326Z,25.91
2022-08-05T01:04:44.321Z,25.87
2022-08-05T01:05:54.650Z,25.77
2022-08-05T01:06:56.533Z,25.72
2022-08-05T01:08:40.291Z,25.68
2022-08-05T01:09:20.032Z,25.58
2022-08-05T01:10:28.649Z,25.63
2022-08-05T01:11:37.451Z,25.64
2022-08-05T01:12:54.361Z,25.66
2022-08-05T01:14:15.324Z,25.65
2022-08-05T01:15:36.256Z,25.58
2022-08-05T01:16:54.360Z,25.56
2022-08-05T01:18:03.080Z,25.49
2022-08-05T01:19:56.334Z,25.50
2022-08-05T01:21:08.857Z,25.44
2022-08-05T01:22:42.995Z,25.41
2022-08-05T01:23:58.080Z,25.30
2022-08-05T01:25:17.662Z,25.39
2022-08-05T01:26:53.938Z,25.37
2022-08-05T01:28:55.219Z,25.43
2022-08-05T01:30:02.175Z,25.44
2022-08-05T01:31:22.872Z,25.36
2022-08-05T01:32:30.901Z,25.31
2022-08-05T01:33:48.898Z,25.26
2022-08-05T01:35:03.080Z,25.22
2022-08-05T01:36:16.646Z,25.26
2022-08-05T01:37:25.589Z,25.23
2022-08-05T01:38:30.015Z,25.19
2022-08-05T01:39:46.030Z,25.21
2022-08-05T01:40:49.945Z,25.18
2022-08-05T01:41:55.517Z,25.15
2022-08-05T01:43:00.883Z,25.15
2022-08-05T01:44:09.997Z,25.13
2022-08-05T01:45:16.662Z,25.14
2022-08-05T01:46:42.792Z,25.13
2022-08-05T01:47:43.677Z,25.16
2022-08-05T01:48:49.807Z,25.14
2022-08-05T01:50:01.475Z,25.12
2022-08-05T01:51:08.692Z,25.16
2022-08-05T01:52:17.969Z,25.13
2022-08-05T01:53:54.621Z,25.16
2022-08-05T01:54:52.921Z,25.16
2022-08-05T01:56:00.023Z,25.13
2022-08-05T01:58:29.945Z,25.14
2022-08-05T01:58:45.111Z,25.16
2022-08-05T01:59:54.657Z,25.13
2022-08-05T02:00:58.474Z,25.18
2022-08-05T02:02:01.415Z,25.27
2022-08-05T02:03:29.130Z,25.20
2022-08-05T02:04:36.520Z,25.15
2022-08-05T02:05:44.927Z,25.13
2022-08-05T02:06:50.628Z,25.14
2022-08-05T02:08:00.101Z,25.12
2022-08-05T02:09:03.905Z,25.16
2022-08-05T02:10:07.900Z,25.17
2022-08-05T02:11:15.735Z,25.17
2022-08-05T02:12:40.785Z,25.11
2022-08-05T02:13:53.538Z,25.07
2022-08-05T02:15:25.539Z,25.00
2022-08-05T02:16:44.337Z,25.08
2022-08-05T02:18:31.857Z,25.06
2022-08-05T02:19:24.366Z,25.01
2022-08-05T02:20:38.992Z,25.03
2022-08-05T02:21:49.149Z,25.04
2022-08-05T02:22:57.422Z,24.97
2022-08-05T02:24:04.236Z,24.98
2022-08-05T02:25:14.193Z,24.94
2022-08-05T02:26:21.977Z,24.95
2022-08-05T02:27:30.181Z,24.91
2022-08-05T02:28:48.646Z,24.88
2022-08-05T02:29:58.186Z,24.92
2022-08-05T02:31:23.275Z,24.87
2022-08-05T02:32:30.540Z,24.87
2022-08-05T02:33:38.440Z,24.80
2022-08-05T02:34:41.672Z,24.79
2022-08-05T02:35:57.486Z,24.77
2022-08-05T02:37:05.004Z,24.74
2022-08-05T02:38:09.335Z,24.71
2022-08-05T02:39:12.815Z,24.70
2022-08-05T02:40:17.027Z,24.68
2022-08-05T02:41:20.681Z,24.65
2022-08-05T02:42:26.147Z,24.66
2022-08-05T02:43:30.814Z,24.65
2022-08-05T02:44:38.389Z,24.65
2022-08-05T02:45:52.519Z,24.62
2022-08-05T02:47:00.142Z,24.59
2022-08-05T02:48:12.303Z,24.55
2022-08-05T02:49:16.186Z,24.54
2022-08-05T02:50:18.680Z,24.50
2022-08-05T02:51:28.237Z,24.49
2022-08-05T02:52:46.659Z,24.50
2022-08-05T02:53:49.619Z,24.48
2022-08-05T02:54:57.654Z,24.48
2022-08-05T02:56:02.217Z,24.46
2022-08-05T02:57:10.452Z,24.46
2022-08-05T02:58:30.587Z,24.44
2022-08-05T02:59:34.606Z,24.43
2022-08-05T03:00:50.821Z,24.45
2022-08-05T03:01:54.444Z,24.44
2022-08-05T03:02:57.750Z,24.44
2022-08-05T03:04:11.850Z,24.46
2022-08-05T03:05:16.843Z,24.46
2022-08-05T03:06:54.482Z,24.45
2022-08-05T03:08:04.537Z,24.44
2022-08-05T03:09:11.368Z,24.42
2022-08-05T03:10:24.587Z,24.45
2022-08-05T03:11:55.561Z,24.42
2022-08-05T03:12:48.401Z,24.42
2022-08-05T03:14:03.076Z,24.42
2022-08-05T03:15:09.216Z,24.40
2022-08-05T03:16:10.960Z,24.39
2022-08-05T03:17:17.321Z,24.38
2022-08-05T03:18:29.821Z,24.39
2022-08-05T03:19:34.300Z,24.39
2022-08-05T03:20:38.638Z,24.40
2022-08-05T03:21:50.147Z,24.39
2022-08-05T03:22:53.053Z,24.38
2022-08-05T03:23:57.791Z,24.36
2022-08-05T03:25:11.668Z,24.32
2022-08-05T03:26:31.733Z,24.32
2022-08-05T03:27:58.905Z,24.30
2022-08-05T03:28:56.093Z,24.30
2022-08-05T03:30:07.594Z,24.30
2022-08-05T03:31:10.805Z,24.29
2022-08-05T03:32:20.565Z,24.30
2022-08-05T03:33:22.665Z,24.26
2022-08-05T03:34:34.263Z,24.31
2022-08-05T03:35:41.022Z,24.33
2022-08-05T03:36:43.322Z,24.32
2022-08-05T03:37:46.650Z,24.32
2022-08-05T03:38:53.439Z,24.35
2022-08-05T03:39:58.936Z,24.31
2022-08-05T03:41:03.972Z,24.30
2022-08-05T03:42:12.438Z,24.31
2022-08-05T03:43:58.307Z,24.31
2022-08-05T03:44:36.365Z,24.32
2022-08-05T03:45:58.082Z,24.34
2022-08-05T03:47:00.509Z,24.32
2022-08-05T03:48:05.504Z,24.29
2022-08-05T03:49:09.512Z,24.28
2022-08-05T03:50:12.555Z,24.25
2022-08-05T03:52:36.906Z,24.25
2022-08-05T03:55:06.751Z,24.20
2022-08-05T03:55:54.023Z,24.22
2022-08-05T03:56:10.830Z,24.20
2022-08-05T03:57:20.703Z,24.19
2022-08-05T03:58:27.158Z,24.17
2022-08-05T03:59:54.461Z,24.16
2022-08-05T04:00:59.989Z,24.16
2022-08-05T04:02:03.000Z,24.16
2022-08-05T04:03:08.100Z,24.17
2022-08-05T04:04:21.236Z,24.18
2022-08-05T04:05:23.824Z,24.19
2022-08-05T04:06:26.430Z,24.19
2022-08-05T04:07:29.167Z,24.18
2022-08-05T04:08:36.827Z,24.22
2022-08-05T04:09:38.698Z,24.22
2022-08-05T04:10:57.526Z,24.23
2022-08-05T04:11:59.706Z,24.27
2022-08-05T04:13:04.233Z,24.30
2022-08-05T04:14:06.042Z,24.30
2022-08-05T04:15:09.820Z,24.33
2022-08-05T04:16:24.191Z,24.31
2022-08-05T04:17:55.569Z,24.33
2022-08-05T04:18:54.285Z,24.35
2022-08-05T04:19:58.729Z,24.36
2022-08-05T04:21:00.630Z,24.38
2022-08-05T04:22:09.159Z,24.39
2022-08-05T04:23:16.159Z,24.38
2022-08-05T04:24:19.529Z,24.41
2022-08-05T04:25:56.759Z,24.43
2022-08-05T04:26:46.729Z,24.43
2022-08-05T04:27:57.338Z,24.43
2022-08-05T04:29:07.295Z,24.47
2022-08-05T04:30:10.148Z,24.46
2022-08-05T04:31:11.665Z,24.47
2022-08-05T04:32:13.485Z,24.44
2022-08-05T04:33:54.573Z,24.49
2022-08-05T04:34:43.596Z,24.45
2022-08-05T04:36:16.699Z,24.44
2022-08-05T04:37:06.709Z,24.49
2022-08-05T04:38:08.937Z,24.51
2022-08-05T04:39:10.426Z,24.50
2022-08-05T04:40:14.513Z,24.49
2022-08-05T04:41:21.217Z,24.48
2022-08-05T04:42:38.015Z,24.46
2022-08-05T04:43:48.183Z,24.49
2022-08-05T04:44:54.356Z,24.42
2022-08-05T04:45:55.831Z,24.37
2022-08-05T04:46:59.329Z,24.39
2022-08-05T04:48:08.004Z,24.43
2022-08-05T04:49:18.041Z,24.41
2022-08-05T04:50:37.354Z,24.38
2022-08-05T04:51:47.891Z,24.34
2022-08-05T04:52:51.073Z,24.35
2022-08-05T04:53:52.713Z,24.32
2022-08-05T04:54:57.338Z,24.39
2022-08-05T04:56:14.836Z,24.42
2022-08-05T04:57:21.002Z,24.43
2022-08-05T04:58:30.390Z,24.45
2022-08-05T04:59:38.290Z,24.53
2022-08-05T05:00:41.601Z,24.87
2022-08-05T05:02:35.503Z,25.23
2022-08-05T05:03:06.332Z,25.91
2022-08-05T05:04:08.103Z,26.35
2022-08-05T05:05:26.063Z,26.68
2022-08-05T05:06:36.656Z,26.93
2022-08-05T05:07:52.740Z,27.32
2022-08-05T05:08:57.828Z,27.69
2022-08-05T05:10:02.024Z,28.01
2022-08-05T05:11:04.377Z,28.44
2022-08-05T05:12:07.276Z,28.52
2022-08-05T05:13:14.328Z,28.78
2022-08-05T05:14:16.198Z,29.13
2022-08-05T05:16:01.757Z,29.46
2022-08-05T05:16:39.623Z,29.78
2022-08-05T05:17:55.679Z,29.97
2022-08-05T05:19:19.058Z,30.18
2022-08-05T05:20:20.536Z,30.34
2022-08-05T05:21:22.081Z,30.21
2022-08-05T05:22:28.714Z,30.16
2022-08-05T05:23:39.385Z,30.02
2022-08-05T05:24:58.604Z,29.98
2022-08-05T05:26:01.338Z,29.99
2022-08-05T05:27:03.794Z,29.99
2022-08-05T05:28:05.450Z,30.12
2022-08-05T05:29:14.380Z,30.34
2022-08-05T05:30:29.664Z,30.25
2022-08-05T05:32:33.022Z,30.91
2022-08-05T05:33:58.599Z,31.17
2022-08-05T05:34:56.072Z,31.43
2022-08-05T05:35:59.239Z,31.98
2022-08-05T05:37:01.530Z,32.27
2022-08-05T05:38:09.187Z,32.64
2022-08-05T05:39:14.627Z,33.08
2022-08-05T05:40:22.557Z,33.75
2022-08-05T05:41:40.932Z,34.16
2022-08-05T05:42:46.980Z,34.39
2022-08-05T05:43:58.393Z,34.48
2022-08-05T05:45:02.901Z,34.39
2022-08-05T05:46:05.308Z,34.54
2022-08-05T05:47:13.283Z,34.46
2022-08-05T05:48:27.307Z,34.43
2022-08-05T05:49:29.426Z,34.29
2022-08-05T05:50:31.058Z,33.96
2022-08-05T05:51:49.717Z,33.58
2022-08-05T05:52:52.447Z,33.13
2022-08-05T05:53:58.572Z,32.63
2022-08-05T05:55:05.906Z,32.66
2022-08-05T05:56:14.626Z,32.37
2022-08-05T05:57:42.754Z,32.29
2022-08-05T05:58:49.483Z,32.56
2022-08-05T05:59:52.438Z,32.85
2022-08-05T06:00:54.481Z,32.97
2022-08-05T06:01:57.884Z,32.33
2022-08-05T06:03:01.476Z,32.40
2022-08-05T06:04:03.851Z,32.66
2022-08-05T06:05:10.567Z,32.90
2022-08-05T06:06:18.547Z,32.87
2022-08-05T06:07:24.149Z,32.94
2022-08-05T06:08:43.752Z,32.20
2022-08-05T06:10:01.338Z,32.58
2022-08-05T06:11:05.322Z,33.12
2022-08-05T06:12:09.646Z,32.97
2022-08-05T06:13:11.393Z,33.34
2022-08-05T06:14:12.928Z,33.85
2022-08-05T06:15:23.618Z,34.45
2022-08-05T06:16:28.597Z,34.90
2022-08-05T06:17:53.596Z,34.97
2022-08-05T06:18:55.331Z,35.29
2022-08-05T06:19:59.584Z,35.31
2022-08-05T06:21:01.366Z,35.51
2022-08-05T06:22:04.055Z,35.22
2022-08-05T06:23:05.581Z,35.35
2022-08-05T06:24:11.736Z,35.24
2022-08-05T06:25:25.323Z,35.50
2022-08-05T06:26:35.987Z,35.90
2022-08-05T06:28:10.412Z,35.90
2022-08-05T06:28:59.100Z,36.23
2022-08-05T06:30:17.828Z,36.49
2022-08-05T06:31:22.701Z,35.90
2022-08-05T06:32:32.192Z,36.36
2022-08-05T06:34:07.195Z,36.46
2022-08-05T06:34:57.314Z,36.63
2022-08-05T06:36:04.150Z,36.16
2022-08-05T06:37:10.952Z,36.31
2022-08-05T06:38:14.027Z,36.86
2022-08-05T06:39:17.662Z,37.15
2022-08-05T06:40:27.979Z,37.93
2022-08-05T06:41:34.797Z,38.51
2022-08-05T06:42:42.750Z,38.65
2022-08-05T06:43:51.570Z,39.17
2022-08-05T06:45:06.488Z,39.45
2022-08-05T06:46:10.343Z,39.29
2022-08-05T06:48:11.746Z,39.73
2022-08-05T06:48:53.628Z,39.99
2022-08-05T06:50:01.222Z,39.19
2022-08-05T06:51:09.644Z,38.97
2022-08-05T06:52:36.629Z,38.96
2022-08-05T06:53:39.293Z,38.65
2022-08-05T06:54:41.138Z,39.17
2022-08-05T06:55:42.629Z,39.45
2022-08-05T06:56:54.768Z,39.26
2022-08-05T06:58:19.821Z,38.99
2022-08-05T06:59:21.964Z,38.64
2022-08-05T07:00:24.987Z,38.37
2022-08-05T07:01:32.045Z,37.79
2022-08-05T07:02:41.867Z,37.33
2022-08-05T07:03:43.338Z,36.83
2022-08-05T07:04:45.566Z,37.32
2022-08-05T07:05:47.839Z,37.95
2022-08-05T07:06:51.283Z,38.08
2022-08-05T07:07:52.753Z,37.75
2022-08-05T07:08:55.136Z,37.78
2022-08-05T07:09:58.273Z,38.06
2022-08-05T07:11:00.312Z,38.48
2022-08-05T07:12:03.825Z,38.79
2022-08-05T07:13:05.359Z,39.07
2022-08-05T07:14:07.204Z,38.97
2022-08-05T07:15:17.323Z,39.07
2022-08-05T07:18:01.492Z,39.54
2022-08-05T07:18:09.556Z,39.58
2022-08-05T07:19:11.746Z,39.95
2022-08-05T07:20:32.977Z,40.06
2022-08-05T07:21:59.531Z,40.80
2022-08-05T07:22:56.756Z,40.76
2022-08-05T07:23:58.433Z,40.60
2022-08-05T07:25:21.975Z,40.29
2022-08-05T07:26:25.769Z,40.81
2022-08-05T07:27:58.470Z,40.85
2022-08-05T07:28:49.120Z,40.25
2022-08-05T07:30:27.213Z,39.53
2022-08-05T07:31:12.145Z,38.22
2022-08-05T07:32:17.154Z,37.40
2022-08-05T07:33:37.045Z,37.17
2022-08-05T07:34:42.144Z,37.04
2022-08-05T07:36:05.158Z,37.01
2022-08-05T07:37:07.314Z,36.95
2022-08-05T07:38:32.979Z,36.78
2022-08-05T07:40:04.411Z,36.34
2022-08-05T07:41:01.461Z,35.66
2022-08-05T07:42:18.049Z,35.35
2022-08-05T07:43:33.163Z,35.02
2022-08-05T07:44:36.398Z,34.40
2022-08-05T07:45:57.603Z,34.24
2022-08-05T07:46:59.848Z,34.09
2022-08-05T07:48:01.952Z,33.79
2022-08-05T07:49:06.119Z,33.62
2022-08-05T07:50:09.869Z,33.11
2022-08-05T07:51:36.165Z,32.96
2022-08-05T07:52:38.550Z,32.72
2022-08-05T07:53:50.427Z,32.67
2022-08-05T07:54:52.591Z,32.51
2022-08-05T07:56:05.414Z,32.08
2022-08-05T07:57:17.965Z,32.08
2022-08-05T07:58:57.190Z,31.98
2022-08-05T07:59:51.838Z,31.84
2022-08-05T08:00:53.432Z,31.98
2022-08-05T08:01:57.489Z,31.96
2022-08-05T08:03:13.817Z,31.85
2022-08-05T08:04:17.058Z,31.99
2022-08-05T08:05:26.270Z,32.21
2022-08-05T08:06:28.121Z,32.07
2022-08-05T08:07:39.452Z,32.08
2022-08-05T08:08:51.372Z,31.96
2022-08-05T08:09:55.025Z,31.78
2022-08-05T08:10:56.743Z,31.62
2022-08-05T08:12:00.214Z,31.63
2022-08-05T08:13:05.659Z,31.48
2022-08-05T08:14:07.442Z,31.50
2022-08-05T08:15:15.038Z,31.14
2022-08-05T08:16:34.874Z,31.05
2022-08-05T08:17:39.149Z,31.21
2022-08-05T08:18:50.006Z,31.12
2022-08-05T08:20:20.913Z,30.91
2022-08-05T08:21:15.775Z,30.82
2022-08-05T08:22:25.158Z,30.78
2022-08-05T08:24:01.160Z,30.57
2022-08-05T08:24:51.841Z,30.62
2022-08-05T08:26:02.145Z,30.77
2022-08-05T08:27:07.112Z,30.80
2022-08-05T08:28:18.303Z,30.60
2022-08-05T08:30:04.344Z,30.74
2022-08-05T08:30:51.862Z,30.85
2022-08-05T08:31:53.567Z,31.00
2022-08-05T08:32:55.098Z,30.98
2022-08-05T08:33:56.621Z,31.04
2022-08-05T08:34:58.791Z,31.08
2022-08-05T08:36:29.636Z,31.08
2022-08-05T08:37:22.406Z,31.11
2022-08-05T08:38:36.114Z,30.99
2022-08-05T08:39:44.255Z,30.82
2022-08-05T08:40:51.875Z,30.74
2022-08-05T08:41:59.637Z,30.69
2022-08-05T08:45:16.492Z,30.73
2022-08-05T08:45:17.009Z,30.80
2022-08-05T08:45:49.454Z,30.49
2022-08-05T08:46:51.949Z,30.50
2022-08-05T08:48:07.484Z,30.54
2022-08-05T08:50:22.457Z,30.60
2022-08-05T08:51:04.010Z,30.72
2022-08-05T08:52:13.665Z,30.74
2022-08-05T08:53:17.049Z,30.78
2022-08-05T08:54:19.939Z,30.77
2022-08-05T08:55:32.166Z,30.77
2022-08-05T08:56:47.793Z,30.92
2022-08-05T08:57:58.251Z,30.92
2022-08-05T08:59:01.049Z,30.97
2022-08-05T09:00:08.153Z,30.91
2022-08-05T09:01:15.633Z,31.07
2022-08-05T09:02:21.135Z,31.07
2022-08-05T09:03:28.798Z,31.07
2022-08-05T09:04:58.263Z,31.16
2022-08-05T09:06:08.518Z,31.08
2022-08-05T09:07:19.617Z,31.24
2022-08-05T09:08:30.419Z,31.30
2022-08-05T09:09:35.685Z,31.28
2022-08-05T09:10:41.269Z,31.43
2022-08-05T09:11:51.911Z,31.46
2022-08-05T09:12:56.969Z,31.17
2022-08-05T09:14:54.396Z,31.18
2022-08-05T09:15:28.050Z,31.30
2022-08-05T09:16:32.211Z,31.31
2022-08-05T09:17:42.660Z,31.40
2022-08-05T09:18:52.225Z,31.45
2022-08-05T09:20:02.641Z,31.44
2022-08-05T09:21:11.698Z,31.06
2022-08-05T09:22:31.358Z,31.23
2022-08-05T09:23:37.508Z,31.34
2022-08-05T09:25:00.953Z,31.15
2022-08-05T09:26:20.536Z,31.20
2022-08-05T09:28:05.252Z,31.18
2022-08-05T09:29:08.924Z,31.30
2022-08-05T09:30:16.348Z,31.32
2022-08-05T09:31:43.353Z,31.36
2022-08-05T09:32:45.900Z,31.26
2022-08-05T09:34:07.604Z,31.28
2022-08-05T09:35:26.465Z,31.43
2022-08-05T09:36:54.837Z,31.43
2022-08-05T09:38:11.991Z,31.42
2022-08-05T09:39:22.403Z,31.48
2022-08-05T09:40:37.042Z,31.49
2022-08-05T09:42:03.528Z,31.55
2022-08-05T09:43:05.625Z,31.73
2022-08-05T09:44:11.101Z,31.85
2022-08-05T09:46:05.132Z,31.93
2022-08-05T09:46:35.058Z,31.96
2022-08-05T09:47:55.147Z,31.93
2022-08-05T09:49:06.786Z,31.57
2022-08-05T09:50:09.897Z,31.48
2022-08-05T09:51:14.834Z,31.59
2022-08-05T09:52:24.018Z,31.63
2022-08-05T09:53:54.883Z,31.71
2022-08-05T09:54:52.631Z,31.79
2022-08-05T09:56:04.661Z,31.88
2022-08-05T09:57:06.757Z,31.96
2022-08-05T09:58:25.751Z,32.13
2022-08-05T09:59:27.758Z,32.13
2022-08-05T10:00:30.501Z,32.00
2022-08-05T10:01:33.572Z,31.90
2022-08-05T10:02:39.757Z,31.92
2022-08-05T10:03:58.893Z,31.95
2022-08-05T10:05:07.922Z,32.03
2022-08-05T10:06:14.648Z,31.67
2022-08-05T10:07:20.814Z,31.58
2022-08-05T10:08:39.195Z,31.63
2022-08-05T10:10:14.613Z,31.80
2022-08-05T10:11:17.762Z,31.82
2022-08-05T10:12:33.366Z,31.80
2022-08-05T10:13:45.572Z,31.66
2022-08-05T10:14:49.941Z,31.51
2022-08-05T10:15:56.226Z,31.31
2022-08-05T10:17:36.892Z,31.34
2022-08-05T10:18:37.255Z,31.48
2022-08-05T10:20:04.488Z,31.54
2022-08-05T10:21:08.428Z,31.71
2022-08-05T10:22:15.647Z,31.80
2022-08-05T10:23:58.754Z,31.80
2022-08-05T10:24:59.290Z,31.85
2022-08-05T10:26:06.969Z,31.81
2022-08-05T10:27:09.857Z,31.78
2022-08-05T10:28:17.064Z,31.84
2022-08-05T10:30:05.700Z,31.83
2022-08-05T10:32:52.645Z,32.00
2022-08-05T10:32:54.723Z,32.13
2022-08-05T10:33:30.629Z,32.32
2022-08-05T10:34:37.121Z,32.35
2022-08-05T10:35:44.298Z,32.48
2022-08-05T10:36:46.697Z,32.52
2022-08-05T10:37:49.404Z,32.58
2022-08-05T10:39:04.997Z,32.62
2022-08-05T10:40:27.802Z,32.68
2022-08-05T10:41:45.192Z,32.78
2022-08-05T10:42:52.758Z,32.89
2022-08-05T10:44:05.570Z,32.95
2022-08-05T10:45:21.410Z,32.97
2022-08-05T10:46:50.573Z,33.08
2022-08-05T10:48:31.670Z,33.11
2022-08-05T10:49:16.594Z,33.05
2022-08-05T10:50:20.843Z,33.12
2022-08-05T10:51:59.654Z,33.02
2022-08-05T10:53:02.494Z,32.89
2022-08-05T10:54:05.938Z,32.99
2022-08-05T10:55:27.739Z,32.88
2022-08-05T10:56:36.453Z,32.97
2022-08-05T10:57:40.390Z,32.84
2022-08-05T10:58:50.830Z,32.89
2022-08-05T11:00:20.207Z,32.86
2022-08-05T11:01:54.899Z,32.91
2022-08-05T11:03:23.438Z,32.91
2022-08-05T11:04:28.075Z,32.65
2022-08-05T11:05:33.962Z,32.61
2022-08-05T11:06:59.127Z,32.76
2022-08-05T11:08:27.527Z,32.89
2022-08-05T11:09:39.184Z,33.15
2022-08-05T11:10:57.754Z,33.18
2022-08-05T11:12:04.022Z,33.34
2022-08-05T11:13:06.160Z,33.49
2022-08-05T11:14:08.662Z,33.67
2022-08-05T11:15:20.805Z,33.78
2022-08-05T11:16:34.031Z,33.81
2022-08-05T11:17:56.819Z,33.62
2022-08-05T11:20:10.754Z,33.57
2022-08-05T11:20:48.351Z,33.69
2022-08-05T11:21:50.005Z,33.64
2022-08-05T11:22:54.006Z,33.72
2022-08-05T11:24:30.427Z,33.67
2022-08-05T11:26:05.736Z,33.83
2022-08-05T11:27:50.114Z,34.08
2022-08-05T11:28:53.021Z,34.22
2022-08-05T11:29:59.852Z,34.27
2022-08-05T11:31:01.338Z,34.32
2022-08-05T11:32:31.986Z,34.21
2022-08-05T11:33:53.546Z,34.33
2022-08-05T11:34:56.355Z,34.37
2022-08-05T11:36:02.914Z,34.45
2022-08-05T11:38:30.194Z,34.44
2022-08-05T11:38:52.428Z,34.56
2022-08-05T11:40:00.798Z,34.56
2022-08-05T11:41:35.290Z,34.55
2022-08-05T11:42:28.695Z,34.63
2022-08-05T11:44:00.940Z,34.84
2022-08-05T11:45:00.966Z,34.43
2022-08-05T11:46:27.420Z,34.48
2022-08-05T11:47:48.491Z,34.61
2022-08-05T11:48:46.170Z,34.82
2022-08-05T11:49:51.181Z,34.85
2022-08-05T11:50:53.433Z,34.89
2022-08-05T11:51:57.319Z,35.04
2022-08-05T11:53:04.979Z,35.10
2022-08-05T11:54:21.850Z,35.23
2022-08-05T11:55:36.217Z,35.25
2022-08-05T11:56:45.199Z,35.06
2022-08-05T11:58:11.012Z,34.87
2022-08-05T11:59:21.358Z,34.69
2022-08-05T12:00:30.729Z,34.78
2022-08-05T12:01:32.249Z,34.89
2022-08-05T12:02:36.102Z,34.88
2022-08-05T12:03:55.792Z,34.67
2022-08-05T12:04:59.694Z,34.67
2022-08-05T12:06:06.160Z,34.62
2022-08-05T12:07:14.813Z,34.57
2022-08-05T12:08:18.148Z,34.70
2022-08-05T12:09:52.492Z,34.64
2022-08-05T12:10:49.458Z,34.86
2022-08-05T12:11:53.642Z,34.72
2022-08-05T12:12:59.921Z,34.76
2022-08-05T12:14:07.003Z,34.90
2022-08-05T12:15:19.253Z,34.90
2022-08-05T12:16:45.412Z,34.74
2022-08-05T12:18:10.100Z,34.91
2022-08-05T12:20:16.659Z,34.85
2022-08-05T12:20:33.701Z,34.74
2022-08-05T12:21:42.737Z,34.66
2022-08-05T12:22:46.122Z,34.55
2022-08-05T12:24:08.539Z,34.55
2022-08-05T12:25:10.099Z,34.50
2022-08-05T12:26:15.970Z,34.40
2022-08-05T12:27:25.450Z,34.35
2022-08-05T12:28:40.066Z,34.48
2022-08-05T12:29:42.608Z,34.61
2022-08-05T12:30:57.200Z,34.50
2022-08-05T12:32:02.257Z,34.40
2022-08-05T12:33:06.883Z,34.29
2022-08-05T12:34:30.870Z,34.30
2022-08-05T12:35:39.569Z,34.40
2022-08-05T12:36:51.671Z,34.39
2022-08-05T12:37:53.466Z,34.40
2022-08-05T12:38:58.403Z,34.44
2022-08-05T12:40:03.696Z,34.59
2022-08-05T12:41:13.959Z,34.64
2022-08-05T12:42:20.380Z,34.83
2022-08-05T12:43:22.055Z,35.02
2022-08-05T12:44:33.928Z,35.07
2022-08-05T12:45:42.769Z,35.22
2022-08-05T12:46:55.948Z,35.06
2022-08-05T12:48:01.789Z,34.94
2022-08-05T12:49:19.282Z,35.32
2022-08-05T12:50:27.036Z,35.45
2022-08-05T12:52:12.716Z,35.42
2022-08-05T12:53:04.952Z,35.66
2022-08-05T12:54:14.802Z,35.71
2022-08-05T12:55:32.962Z,35.50
2022-08-05T12:56:40.750Z,35.63
2022-08-05T12:58:52.742Z,35.58
2022-08-05T12:59:46.458Z,35.57
2022-08-05T13:02:00.179Z,35.43
2022-08-05T13:02:10.282Z,35.52
2022-08-05T13:03:14.774Z,35.59
2022-08-05T13:04:20.880Z,35.35
2022-08-05T13:05:24.351Z,35.56
2022-08-05T13:06:41.162Z,35.50
2022-08-05T13:08:00.614Z,35.48
2022-08-05T13:09:10.835Z,35.48
2022-08-05T13:10:19.856Z,35.71
2022-08-05T13:11:46.937Z,35.85
2022-08-05T13:12:50.776Z,35.88
2022-08-05T13:14:05.103Z,35.95
2022-08-05T13:15:17.981Z,36.19
2022-08-05T13:16:28.029Z,36.26
2022-08-05T13:17:31.932Z,35.98
2022-08-05T13:18:55.312Z,36.06
2022-08-05T13:20:13.086Z,36.24
2022-08-05T13:21:20.943Z,36.18
2022-08-05T13:22:28.155Z,35.83
2022-08-05T13:23:31.519Z,35.54
2022-08-05T13:24:57.246Z,35.57
2022-08-05T13:25:59.321Z,35.58
2022-08-05T13:27:02.449Z,35.58
2022-08-05T13:28:04.219Z,35.71
2022-08-05T13:29:05.978Z,35.80
2022-08-05T13:30:36.793Z,35.82
2022-08-05T13:32:03.473Z,35.74
2022-08-05T13:32:54.124Z,35.62
2022-08-05T13:34:21.231Z,35.53
2022-08-05T13:35:22.202Z,35.16
2022-08-05T13:36:34.811Z,35.12
2022-08-05T13:37:36.330Z,35.21
2022-08-05T13:38:38.556Z,35.11
2022-08-05T13:40:16.090Z,35.15
2022-08-05T13:41:06.232Z,35.25
2022-08-05T13:42:14.318Z,35.16
2022-08-05T13:43:21.869Z,35.10
2022-08-05T13:44:23.859Z,34.99
2022-08-05T13:45:33.978Z,34.98
2022-08-05T13:48:09.598Z,34.67
2022-08-05T13:49:23.070Z,34.53
2022-08-05T13:50:25.025Z,34.49
2022-08-05T13:51:29.394Z,34.36
2022-08-05T13:52:38.201Z,34.33
2022-08-05T13:53:48.020Z,34.41
2022-08-05T13:54:53.547Z,34.42
2022-08-05T13:56:00.163Z,34.38
2022-08-05T13:57:03.709Z,34.19
2022-08-05T13:58:07.849Z,34.25
2022-08-05T13:59:19.490Z,34.28
2022-08-05T14:00:27.358Z,34.09
2022-08-05T14:01:44.360Z,34.06
2022-08-05T14:02:50.989Z,34.04
2022-08-05T14:03:52.632Z,34.06
2022-08-05T14:04:54.391Z,34.00
2022-08-05T14:06:25.222Z,33.91
2022-08-05T14:07:55.637Z,33.79
2022-08-05T14:08:44.116Z,33.96
2022-08-05T14:09:46.650Z,34.06
2022-08-05T14:10:48.331Z,34.08
2022-08-05T14:12:01.167Z,33.98
2022-08-05T14:13:11.837Z,33.89
2022-08-05T14:14:23.380Z,33.85
2022-08-05T14:16:08.431Z,33.77
2022-08-05T14:16:50.197Z,33.66
2022-08-05T14:17:59.741Z,33.71
2022-08-05T14:19:04.504Z,33.75
2022-08-05T14:20:07.928Z,33.76
2022-08-05T14:22:07.011Z,33.86
2022-08-05T14:22:34.214Z,33.86
2022-08-05T14:23:37.370Z,33.77
2022-08-05T14:24:38.881Z,33.71
2022-08-05T14:25:45.153Z,33.64
2022-08-05T14:27:08.510Z,33.62
2022-08-05T14:28:09.183Z,33.83
2022-08-05T14:29:28.270Z,34.02
2022-08-05T14:30:32.836Z,33.89
2022-08-05T14:32:03.250Z,33.89
2022-08-05T14:32:56.712Z,33.77
2022-08-05T14:34:00.587Z,33.67
2022-08-05T14:35:03.123Z,33.35
2022-08-05T14:36:05.126Z,33.00
2022-08-05T14:37:06.750Z,33.33
2022-08-05T14:38:08.222Z,33.56
2022-08-05T14:39:29.811Z,33.89
2022-08-05T14:40:51.295Z,34.01
2022-08-05T14:42:19.135Z,33.91
2022-08-05T14:43:14.405Z,33.86
2022-08-05T14:44:20.232Z,34.02
2022-08-05T14:45:23.473Z,34.12
2022-08-05T14:46:28.031Z,34.11
2022-08-05T14:48:05.692Z,34.22
2022-08-05T14:48:51.699Z,34.38
2022-08-05T14:49:56.255Z,34.45
2022-08-05T14:51:01.319Z,34.29
2022-08-05T14:52:04.812Z,34.39
2022-08-05T14:53:11.628Z,34.44
2022-08-05T14:54:29.996Z,34.36
2022-08-05T14:55:39.671Z,34.32
2022-08-05T14:56:44.024Z,34.26
2022-08-05T14:57:56.288Z,34.01
2022-08-05T14:58:58.142Z,34.13
2022-08-05T14:59:59.626Z,34.24
2022-08-05T15:01:01.683Z,34.37
2022-08-05T15:02:15.914Z,34.20
2022-08-05T15:03:17.525Z,34.18
2022-08-05T15:04:22.358Z,34.08
2022-08-05T15:05:30.207Z,34.39
2022-08-05T15:06:49.453Z,34.48
2022-08-05T15:08:11.225Z,34.58
2022-08-05T15:09:12.888Z,34.26